Time;durP1;ratioP1;P1;durP2;ratioP2;P2;SDS_P1;SDS_P2;PMS_P1;PMS_P2;Temp;Humidity;BMP_temperature;BMP_pressure;BME280_temperature;BME280_humidity;BME280_pressure;Samples;Min_cycle;Max_cycle;Signal;HPM_P1;HPM_P2
2021/11/26 00:02:41;;;;;;;4.90;2.50;;;;;;;3.20;100.00;91363.03;4868965;29;20467;-94
2021/11/26 00:05:51;;;;;;;;;;;;;;;;;;;;;
2021/11/26 00:09:39;;;;;;;;;;;;;;;;;;;;;
2021/11/26 00:19:35;;;;;;;7.35;3.30;;;;;;;3.17;100.00;91336.91;4850012;29;20041;-93
2021/11/26 00:22:44;;;;;;;;;;;;;;;;;;;;;
2021/11/26 00:25:38;;;;;;;6.70;2.67;;;;;;;3.13;100.00;91321.94;4879303;29;20071;-94
2021/11/26 00:32:00;;;;;;;3.45;1.75;;;;;;;3.29;100.00;91329.59;4852061;29;20518;-94
2021/11/26 00:37:56;;;;;;;3.65;1.80;;;;;;;3.24;100.00;91312.31;4894567;29;20052;-93
2021/11/26 00:44:36;;;;;;;;;;;;;;;;;;;;;
2021/11/26 00:48:07;;;;;;;2.67;1.58;;;;;;;3.23;100.00;91294.47;4899279;29;20043;-94
2021/11/26 00:51:26;;;;;;;2.40;1.50;;;;;;;3.17;100.00;91274.84;4893176;29;20036;-94
2021/11/26 00:54:33;;;;;;;;;;;;;;;;;;;;;
2021/11/26 00:57:22;;;;;;;3.80;1.40;;;;;;;3.22;100.00;91267.03;4886204;29;20053;-94
2021/11/26 01:00:01;;;;;;;3.03;1.55;;;;;;;3.19;100.00;91267.59;4852242;29;20063;-94
2021/11/26 01:03:13;;;;;;;;;;;;;;;;;;;;;
2021/11/26 01:06:35;;;;;;;;;;;;;;;;;;;;;
2021/11/26 01:10:03;;;;;;;;;;;;;;;;;;;;;
2021/11/26 01:13:11;;;;;;;;;;;;;;;;;;;;;
2021/11/26 01:16:36;;;;;;;2.70;1.45;;;;;;;3.15;100.00;91243.31;4901404;29;20132;-93
2021/11/26 01:19:45;;;;;;;10.63;3.15;;;;;;;3.07;99.64;91234.34;4879989;29;20123;-93
2021/11/26 01:23:01;;;;;;;23.67;3.42;;;;;;;3.20;99.59;91246.66;4864057;29;20048;-93
2021/11/26 01:25:57;;;;;;;5.95;3.30;;;;;;;2.99;99.91;91225.31;4868920;29;20479;-93
2021/11/26 01:35:48;;;;;;;5.90;3.53;;;;;;;2.96;100.00;91202.59;4856351;29;20189;-93
2021/11/26 01:38:33;;;;;;;6.95;3.50;;;;;;;2.94;100.00;91206.50;4871650;29;20040;-93
2021/11/26 01:41:54;;;;;;;;;;;;;;;;;;;;;
2021/11/26 01:44:41;;;;;;;;;;;;;;;;;;;;;
2021/11/26 01:48:10;;;;;;;5.43;2.65;;;;;;;3.15;100.00;91205.28;4869306;29;20049;-93
2021/11/26 01:51:17;;;;;;;;;;;;;;;;;;;;;
2021/11/26 01:53:58;;;;;;;;;;;;;;;;;;;;;
2021/11/26 01:57:17;;;;;;;;;;;;;;;;;;;;;
2021/11/26 02:00:54;;;;;;;4.25;2.05;;;;;;;3.11;100.00;91188.81;4904257;29;20036;-94
2021/11/26 02:11:04;;;;;;;;;;;;;;;;;;;;;
2021/11/26 02:17:23;;;;;;;3.70;1.50;;;;;;;3.23;100.00;91170.34;4874590;29;20053;-94
2021/11/26 02:20:42;;;;;;;;;;;;;;;;;;;;;
2021/11/26 02:23:52;;;;;;;;;;;;;;;;;;;;;
2021/11/26 02:26:53;;;;;;;;;;;;;;;;;;;;;
2021/11/26 02:29:51;;;;;;;2.42;1.50;;;;;;;3.17;100.00;91135.22;4875805;29;20113;-92
2021/11/26 02:32:55;;;;;;;2.55;1.23;;;;;;;3.18;100.00;91136.75;4882748;29;20120;-94
2021/11/26 02:36:26;;;;;;;2.45;1.33;;;;;;;3.22;100.00;91137.75;4869204;29;20041;-94
2021/11/26 02:39:16;;;;;;;;;;;;;;;3.31;100.00;91136.09;4872663;29;20590;-94
2021/11/26 02:42:13;;;;;;;1.00;0.90;;;;;;;3.22;100.00;91127.38;4870320;29;19962;-94
2021/11/26 02:45:26;;;;;;;1.45;0.80;;;;;;;3.24;100.00;91120.13;4851926;29;20127;-93
2021/11/26 02:48:54;;;;;;;;;;;;;;;;;;;;;
2021/11/26 02:52:41;;;;;;;;;;;;;;;;;;;;;
2021/11/26 02:56:07;;;;;;;1.52;0.90;;;;;;;3.32;100.00;91111.78;4876634;29;20045;-94
2021/11/26 02:59:28;;;;;;;3.13;1.80;;;;;;;3.25;100.00;91101.75;4863105;29;20045;-93
2021/11/26 03:10:55;;;;;;;3.15;1.30;;;;;;;3.11;100.00;91072.44;4874043;29;20072;-94
2021/11/26 03:14:07;;;;;;;2.45;1.40;;;;;;;3.09;100.00;91069.34;4897271;29;20107;-94
2021/11/26 03:17:04;;;;;;;;;;;;;;;;;;;;;
2021/11/26 03:20:35;;;;;;;;;;;;;;;;;;;;;
2021/11/26 03:23:24;;;;;;;;;;;;;;;;;;;;;
2021/11/26 03:26:41;;;;;;;1.55;0.90;;;;;;;2.98;100.00;91068.69;4894517;29;20093;-94
2021/11/26 03:30:00;;;;;;;1.55;1.00;;;;;;;2.95;100.00;91065.88;4873105;29;20072;-92
2021/11/26 03:33:02;;;;;;;;;;;;;;;;;;;;;
2021/11/26 03:36:01;;;;;;;1.02;0.70;;;;;;;2.86;100.00;91055.34;4899935;29;20155;-94
2021/11/26 03:39:05;;;;;;;2.70;0.98;;;;;;;2.85;100.00;91051.22;4886079;29;20036;-94
2021/11/26 03:42:19;;;;;;;0.63;0.63;;;;;;;2.74;100.00;91034.28;4875610;29;20080;-94
2021/11/26 03:48:46;;;;;;;0.88;0.70;;;;;;;2.79;100.00;91031.66;4881696;29;20052;-94
2021/11/26 03:55:34;;;;;;;0.90;0.70;;;;;;;2.83;100.00;91033.41;4893938;29;20314;-93
2021/11/26 04:02:13;;;;;;;0.90;0.80;;;;;;;2.97;100.00;91032.75;4890740;29;20049;-93
2021/11/26 04:09:09;;;;;;;;;;;;;;;;;;;;;
2021/11/26 04:12:09;;;;;;;0.70;0.70;;;;;;;2.93;100.00;91001.53;4901398;29;20117;-94
2021/11/26 04:15:45;;;;;;;4.63;1.27;;;;;;;2.90;100.00;90996.91;4882108;29;20032;-93
2021/11/26 04:23:01;;;;;;;;;;;;;;;;;;;;;
2021/11/26 04:25:59;;;;;;;1.98;1.10;;;;;;;2.85;100.00;90995.13;4892709;29;20120;-94
2021/11/26 04:30:13;;;;;;;;;;;;;;;;;;;;;
2021/11/26 04:32:39;;;;;;;;;;;;;;;;;;;;;
2021/11/26 04:35:50;;;;;;;1.48;1.05;;;;;;;2.91;100.00;90990.69;4885686;29;20041;-93
2021/11/26 04:39:12;;;;;;;1.13;1.00;;;;;;;2.96;100.00;90993.22;4885952;29;20327;-93
2021/11/26 04:42:27;;;;;;;3.20;1.33;;;;;;;2.90;100.00;90986.56;4822935;29;20052;-93
2021/11/26 04:45:49;;;;;;;;;;;;;;;;;;;;;
2021/11/26 04:52:00;;;;;;;1.45;0.88;;;;;;;2.81;100.00;90977.88;4854410;29;20060;-92
2021/11/26 04:58:25;;;;;;;;;;;;;;;;;;;;;
2021/11/26 05:01:26;;;;;;;;;;;;;;;;;;;;;
2021/11/26 05:11:25;;;;;;;;;;;;;;;;;;;;;
2021/11/26 05:18:23;;;;;;;0.95;0.80;;;;;;;2.97;100.00;90961.13;4860404;29;20056;-93
2021/11/26 05:21:22;;;;;;;1.08;0.95;;;;;;;2.99;100.00;90959.06;4884785;29;20515;-94
2021/11/26 05:24:40;;;;;;;1.63;0.90;;;;;;;2.88;100.00;90934.38;4863594;29;20116;-94
2021/11/26 05:28:15;;;;;;;;;;;;;;;;;;;;;
2021/11/26 05:31:40;;;;;;;;;;;;;;;;;;;;;
2021/11/26 05:34:59;;;;;;;;;;;;;;;;;;;;;
2021/11/26 05:38:09;;;;;;;1.15;0.88;;;;;;;2.87;100.00;90919.91;4901298;29;20075;-95
2021/11/26 05:41:25;;;;;;;;;;;;;;;;;;;;;
2021/11/26 05:44:47;;;;;;;0.90;0.80;;;;;;;2.92;100.00;90917.25;4869833;29;20036;-94
2021/11/26 05:48:11;;;;;;;;;;;;;;;;;;;;;
2021/11/26 05:59:01;;;;;;;;;;;;;;;;;;;;;
2021/11/26 06:10:33;;;;;;;;;;;;;;;;;;;;;
2021/11/26 06:14:04;;;;;;;2.15;1.40;;;;;;;2.85;100.00;90880.66;4811311;29;20052;-92
2021/11/26 06:17:13;;;;;;;;;;;;;;;;;;;;;
2021/11/26 06:21:35;;;;;;;;;;;;;;;;;;;;;
2021/11/26 06:28:08;;;;;;;;;;;;;;;;;;;;;
2021/11/26 06:48:03;;;;;;;3.95;1.73;;;;;;;2.65;100.00;90845.50;4808331;29;20057;-92
2021/11/26 06:51:31;;;;;;;;;;;;;;;;;;;;;
2021/11/26 06:55:22;;;;;;;2.80;1.60;;;;;;;2.72;100.00;90838.16;4805247;29;20183;-91
2021/11/26 07:02:14;;;;;;;;;;;;;;;;;;;;;
2021/11/26 07:05:12;;;;;;;3.63;2.10;;;;;;;4.55;98.57;90812.97;4894007;29;20059;-96
2021/11/26 07:08:26;;;;;;;;;;;;;;;;;;;;;
2021/11/26 07:15:08;;;;;;;4.80;1.75;;;;;;;10.81;64.43;90796.91;4904042;29;20119;-96
2021/11/26 07:17:53;;;;;;;;;;;;;;;;;;;;;
2021/11/26 07:20:53;;;;;;;;;;;;;;;;;;;;;
2021/11/26 07:23:40;;;;;;;;;;;;;;;;;;;;;
2021/11/26 07:26:44;;;;;;;4.75;1.75;;;;;;;7.88;72.99;90801.03;4903336;29;20108;-95
2021/11/26 07:29:54;;;;;;;;;;;;;;;;;;;;;
2021/11/26 07:33:09;;;;;;;4.25;1.80;;;;;;;6.93;79.50;90775.81;4885128;29;20491;-96
2021/11/26 07:36:28;;;;;;;5.03;2.00;;;;;;;7.32;78.34;90798.34;4870808;29;20048;-95
2021/11/26 07:46:03;;;;;;;;;;;;;;;;;;;;;
2021/11/26 07:52:11;;;;;;;;;;;;;;;;;;;;;
2021/11/26 07:58:49;;;;;;;4.65;2.50;;;;;;;4.59;88.98;90763.91;4884363;29;20045;-95
2021/11/26 08:05:26;;;;;;;;;;;;;;;;;;;;;
2021/11/26 08:08:48;;;;;;;2.30;1.30;;;;;;;4.29;90.34;90750.50;4903397;29;20128;-95
2021/11/26 08:11:49;;;;;;;1.63;1.10;;;;;;;4.26;90.29;90751.09;4879257;29;20119;-95
2021/11/26 08:14:52;;;;;;;;;;;;;;;;;;;;;
2021/11/26 08:24:04;;;;;;;3.28;1.77;;;;;;;10.89;69.96;90733.19;4894874;29;20124;-77
2021/11/26 08:26:31;;;;;;;2.55;1.58;;;;;;;13.88;62.55;90731.25;4880042;29;20443;-77
2021/11/26 08:28:56;;;;;;;5.28;2.72;;;;;;;12.36;58.20;90742.34;4889510;29;20049;-77
2021/11/26 08:31:23;;;;;;;8.60;2.55;;;;;;;13.51;54.94;90737.72;4861246;29;20033;-77
2021/11/26 08:33:49;;;;;;;5.10;2.78;;;;;;;12.97;54.75;90738.44;4878861;29;20060;-77
2021/11/26 08:36:15;;;;;;;6.75;3.70;;;;;;;10.93;62.57;90741.16;4862185;29;20040;-77
2021/11/26 08:38:41;;;;;;;8.10;3.45;;;;;;;10.53;62.08;90734.75;4875579;29;20346;-77
2021/11/26 08:41:06;;;;;;;6.00;3.10;;;;;;;10.26;63.10;90736.13;4860266;29;20144;-76
2021/11/26 08:43:32;;;;;;;8.05;3.80;;;;;;;9.38;67.02;90735.50;4860794;29;20037;-77
2021/11/26 08:45:58;;;;;;;9.13;4.90;;;;;;;8.52;72.03;90733.19;4860604;29;20040;-76
2021/11/26 08:48:24;;;;;;;9.07;4.68;;;;;;;8.58;71.22;90733.00;4861164;29;20120;-77
2021/11/26 08:50:50;;;;;;;6.90;3.80;;;;;;;8.01;74.91;90732.31;4854717;29;20465;-77
2021/11/26 08:53:18;;;;;;;7.95;4.03;;;;;;;8.31;75.25;90727.16;4848094;29;20492;-77
2021/11/26 08:55:47;;;;;;;8.25;3.58;;;;;;;7.66;76.58;90727.22;4871829;29;20436;-77
2021/11/26 08:58:14;;;;;;;8.75;4.50;;;;;;;6.99;80.18;90733.75;4876398;29;20041;-77
2021/11/26 09:00:40;;;;;;;9.40;4.38;;;;;;;6.41;81.04;90740.84;4853652;29;20124;-77
2021/11/26 09:03:06;;;;;;;6.30;3.47;;;;;;;6.67;82.62;90732.34;4859276;29;20033;-77
2021/11/26 09:05:33;;;;;;;5.97;3.05;;;;;;;6.84;80.20;90727.16;4863274;29;20055;-77
2021/11/26 09:08:02;;;;;;;7.82;3.40;;;;;;;7.25;79.47;90730.34;4876692;29;20144;-77
2021/11/26 09:10:30;;;;;;;6.43;3.35;;;;;;;7.47;79.32;90719.00;4862499;29;20043;-77
2021/11/26 09:12:57;;;;;;;6.45;3.13;;;;;;;8.14;78.46;90722.78;4877688;29;20045;-77
2021/11/26 09:15:23;;;;;;;9.20;5.18;;;;;;;7.65;79.75;90722.31;4876682;29;20045;-77
2021/11/26 09:17:50;;;;;;;12.73;6.00;;;;;;;6.76;82.71;90727.91;4874357;29;20109;-77
2021/11/26 09:20:17;;;;;;;14.10;5.68;;;;;;;6.79;83.53;90722.09;4859118;29;20512;-77
2021/11/26 09:22:42;;;;;;;12.30;4.90;;;;;;;6.32;84.63;90721.88;4876199;29;20440;-76
2021/11/26 09:25:10;;;;;;;9.10;5.40;;;;;;;7.34;82.67;90718.13;4859229;29;20048;-77
2021/11/26 09:27:36;;;;;;;13.88;6.88;;;;;;;7.57;79.21;90716.06;4857072;29;20045;-77
2021/11/26 09:30:04;;;;;;;10.80;5.07;;;;;;;8.11;80.74;90708.53;4869575;29;20047;-77
2021/11/26 09:32:29;;;;;;;11.40;5.93;;;;;;;8.14;79.23;90701.91;4876967;29;20526;-77
2021/11/26 09:34:55;;;;;;;9.90;5.22;;;;;;;7.67;79.78;90692.28;4877179;29;20064;-77
2021/11/26 09:37:21;;;;;;;18.80;6.47;;;;;;;7.58;81.26;90691.56;4849367;29;20396;-77
2021/11/26 09:39:46;;;;;;;13.73;6.93;;;;;;;7.90;80.05;90686.84;4860298;29;20045;-77
2021/11/26 09:42:12;;;;;;;10.82;6.45;;;;;;;7.96;79.78;90690.81;4858642;29;20052;-77
2021/11/26 09:44:41;;;;;;;13.93;6.70;;;;;;;8.41;78.38;90689.56;4862165;29;20452;-76
2021/11/26 09:47:07;;;;;;;16.88;9.23;;;;;;;8.22;78.86;90685.50;4863961;29;20081;-76
2021/11/26 09:49:33;;;;;;;24.95;9.23;;;;;;;7.56;81.00;90688.50;4863289;29;20039;-77
2021/11/26 09:52:00;;;;;;;23.52;9.15;;;;;;;7.03;83.68;90677.44;4864478;29;20022;-77
2021/11/26 09:54:26;;;;;;;33.22;9.23;;;;;;;6.63;86.30;90679.44;4862068;29;20049;-76
2021/11/26 09:56:52;;;;;;;15.70;8.18;;;;;;;6.57;86.51;90678.03;4864474;29;20052;-77
2021/11/26 09:59:19;;;;;;;16.55;8.55;;;;;;;6.64;88.00;90676.53;4861884;29;20046;-77
2021/11/26 10:01:45;;;;;;;17.08;9.10;;;;;;;6.93;85.74;90661.38;4844563;29;20029;-77
2021/11/26 10:04:21;;;;;;;16.25;8.25;;;;;;;6.67;86.26;90662.16;4874530;29;20415;-77
2021/11/26 10:06:48;;;;;;;19.25;9.05;;;;;;;6.56;86.34;90663.53;4853801;29;20507;-77
2021/11/26 10:09:19;;;;;;;21.77;9.10;;;;;;;6.28;87.73;90655.97;4860147;29;20076;-77
2021/11/26 10:11:58;;;;;;;19.65;9.13;;;;;;;6.31;88.78;90650.19;4894302;29;20558;-77
2021/11/26 10:14:27;;;;;;;26.13;7.90;;;;;;;6.05;90.36;90642.34;4899750;29;20036;-77
2021/11/26 10:16:55;;;;;;;19.40;8.05;;;;;;;6.11;90.82;90637.78;4898861;29;20028;-77
2021/11/26 10:19:51;;;;;;;16.73;8.20;;;;;;;6.58;88.24;90636.16;4894359;29;20048;-76
2021/11/26 10:22:19;;;;;;;20.02;9.00;;;;;;;7.04;86.11;90620.94;4880182;29;20048;-77
2021/11/26 10:25:01;;;;;;;17.58;8.13;;;;;;;7.09;85.52;90620.78;4885756;29;20045;-77
2021/11/26 10:27:49;;;;;;;15.93;8.07;;;;;;;7.42;85.32;90620.25;4880009;29;20092;-77
2021/11/26 10:30:21;;;;;;;23.95;10.57;;;;;;;7.76;86.63;90613.38;4874787;29;20033;-77
2021/11/26 10:32:51;;;;;;;15.73;8.45;;;;;;;8.40;81.01;90615.78;4861131;29;20068;-77
2021/11/26 10:35:17;;;;;;;19.15;9.40;;;;;;;7.99;83.39;90614.63;4866050;29;20053;-76
2021/11/26 10:37:53;;;;;;;17.52;8.73;;;;;;;8.02;81.72;90611.41;4861028;29;20167;-76
2021/11/26 10:40:21;;;;;;;14.88;7.97;;;;;;;7.23;86.19;90605.75;4865555;29;20069;-76
2021/11/26 10:42:47;;;;;;;19.52;9.93;;;;;;;7.13;86.13;90605.31;4876792;29;20048;-76
2021/11/26 10:45:19;;;;;;;17.30;8.82;;;;;;;7.18;84.65;90608.53;4879158;29;20029;-76
2021/11/26 10:48:05;;;;;;;;;;;;;;;6.84;85.86;90593.75;4862401;29;20049;-76
2021/11/26 10:50:41;;;;;;;15.02;8.00;;;;;;;6.26;88.14;90603.56;4861047;29;19920;-77
2021/11/26 10:58:23;;;;;;;18.67;9.13;;;;;;;6.43;88.69;90593.16;4860995;29;20045;-76
2021/11/26 11:01:13;;;;;;;18.58;9.77;;;;;;;6.59;90.05;90590.09;4852063;29;20072;-76
2021/11/26 11:03:38;;;;;;;16.70;9.52;;;;;;;7.13;88.43;90587.88;4863831;29;20448;-76
2021/11/26 11:06:15;;;;;;;22.63;9.52;;;;;;;6.82;87.57;90577.69;4844443;29;20034;-76
2021/11/26 11:08:41;;;;;;;15.88;8.93;;;;;;;6.54;87.26;90566.88;4860864;29;20052;-77
2021/11/26 11:11:07;;;;;;;19.10;10.38;;;;;;;6.28;90.67;90578.03;4870588;29;20294;-77
2021/11/26 11:13:33;;;;;;;12.00;7.22;;;;;;;6.69;88.54;90563.81;4879729;29;20092;-76
2021/11/26 11:16:07;;;;;;;13.90;7.65;;;;;;;6.89;87.68;90562.38;4879843;29;20029;-76
2021/11/26 11:18:33;;;;;;;17.88;9.20;;;;;;;6.80;87.38;90553.81;4860053;29;20033;-76
2021/11/26 11:20:59;;;;;;;15.27;7.78;;;;;;;6.52;88.23;90545.63;4843146;29;20091;-76
2021/11/26 11:23:25;;;;;;;16.73;8.80;;;;;;;6.39;89.92;90542.88;4844730;29;20078;-76
2021/11/26 11:25:51;;;;;;;18.83;9.82;;;;;;;6.03;92.24;90551.75;4859764;29;20050;-76
2021/11/26 11:28:16;;;;;;;21.42;10.95;;;;;;;5.96;93.86;90542.88;4874345;29;20080;-76
2021/11/26 11:30:42;;;;;;;14.45;8.13;;;;;;;6.09;91.53;90528.97;4873410;29;20049;-79
2021/11/26 11:33:09;;;;;;;13.07;7.45;;;;;;;6.52;89.54;90527.44;4865708;29;20395;-80
2021/11/26 11:35:38;;;;;;;14.50;7.88;;;;;;;7.03;89.25;90520.56;4863135;29;20160;-80
2021/11/26 11:38:06;;;;;;;16.00;8.57;;;;;;;7.56;87.30;90524.44;4880933;29;20041;-80
2021/11/26 11:40:36;;;;;;;16.13;8.32;;;;;;;8.26;85.11;90514.34;4862958;29;20399;-78
2021/11/26 11:43:09;;;;;;;17.60;8.45;;;;;;;9.57;79.49;90510.41;4880186;29;20093;-80
2021/11/26 11:45:36;;;;;;;11.23;6.10;;;;;;;10.06;74.26;90512.94;4878419;29;20048;-80
2021/11/26 11:48:04;;;;;;;20.63;9.70;;;;;;;9.70;75.86;90511.88;4880360;29;20035;-80
2021/11/26 11:50:32;;;;;;;13.00;7.93;;;;;;;10.01;74.10;90506.06;4879891;29;20135;-81
2021/11/26 11:53:01;;;;;;;11.68;6.60;;;;;;;9.29;75.18;90500.59;4880134;29;20111;-80
2021/11/26 11:55:39;;;;;;;15.13;7.97;;;;;;;8.26;80.25;90496.09;4852236;29;20061;-80
2021/11/26 11:58:24;;;;;;;11.48;5.68;;;;;;;7.69;81.79;90500.03;4875646;29;20041;-80
2021/11/26 12:00:53;;;;;;;10.55;5.22;;;;;;;7.50;82.90;90494.50;4860939;29;20065;-80
2021/11/26 12:03:22;;;;;;;9.90;5.47;;;;;;;8.18;79.52;90488.34;4861421;29;20030;-81
2021/11/26 12:06:01;;;;;;;11.35;5.63;;;;;;;8.50;77.92;90481.66;4857671;29;20094;-79
2021/11/26 12:08:27;;;;;;;9.05;4.38;;;;;;;8.99;76.38;90484.38;4880032;29;20065;-80
2021/11/26 12:10:57;;;;;;;9.25;5.22;;;;;;;8.66;76.52;90474.72;4879063;29;20055;-80
2021/11/26 12:13:35;;;;;;;8.73;4.15;;;;;;;8.27;76.75;90476.00;4880231;29;20403;-80
2021/11/26 12:16:11;;;;;;;14.70;6.18;;;;;;;7.78;80.09;90475.78;4878707;29;20503;-80
2021/11/26 12:18:47;;;;;;;15.52;6.40;;;;;;;7.62;80.49;90473.72;4879717;29;20072;-80
2021/11/26 12:21:15;;;;;;;10.43;3.55;;;;;;;7.79;78.33;90469.47;4879644;29;20129;-80
2021/11/26 12:27:02;;;;;;;37.53;16.90;;;;;;;7.06;83.89;90473.09;4848694;29;20367;-78
2021/11/26 12:29:44;;;;;;;8.27;4.68;;;;;;;7.04;84.12;90472.66;4865621;29;20267;-80
2021/11/26 12:32:18;;;;;;;12.18;5.47;;;;;;;7.18;83.58;90470.63;4862824;29;20037;-81
2021/11/26 12:34:46;;;;;;;9.75;4.13;;;;;;;7.19;81.23;90472.13;4878818;29;20037;-80
2021/11/26 12:37:22;;;;;;;11.07;4.75;;;;;;;7.26;82.37;90462.00;4865782;29;20174;-80
2021/11/26 12:39:48;;;;;;;6.55;3.40;;;;;;;7.36;81.20;90460.09;4844585;29;20124;-80
2021/11/26 12:42:15;;;;;;;4.55;2.35;;;;;;;7.27;80.81;90460.94;4860452;29;20059;-79
2021/11/26 12:44:41;;;;;;;5.97;3.35;;;;;;;7.19;81.24;90461.72;4843407;29;20049;-78
2021/11/26 12:47:14;;;;;;;7.80;4.20;;;;;;;7.19;81.65;90453.91;4854597;29;20048;-79
2021/11/26 12:52:09;;;;;;;8.80;4.50;;;;;;;8.16;77.56;90443.59;4878255;29;20160;-80
2021/11/26 12:54:42;;;;;;;7.22;4.05;;;;;;;8.57;75.28;90442.75;4878632;29;20041;-79
2021/11/26 12:57:24;;;;;;;7.40;3.60;;;;;;;8.32;75.49;90436.69;4877889;29;20033;-79
2021/11/26 13:00:03;;;;;;;6.28;3.85;;;;;;;8.45;75.51;90429.72;4848698;29;20116;-79
2021/11/26 13:02:35;;;;;;;7.78;4.13;;;;;;;8.68;74.92;90435.28;4873519;29;20044;-79
2021/11/26 13:05:08;;;;;;;2.13;1.42;;;;;;;8.21;76.18;90432.97;4878182;29;20041;-79
2021/11/26 13:07:35;;;;;;;8.25;4.10;;;;;;;8.64;76.37;90431.81;4876223;29;20044;-79
2021/11/26 13:10:07;;;;;;;10.30;4.15;;;;;;;8.93;74.56;90418.56;4877965;29;20391;-79
2021/11/26 13:12:42;;;;;;;9.15;4.10;;;;;;;8.92;74.69;90417.06;4878628;29;20388;-79
2021/11/26 13:15:26;;;;;;;13.77;4.45;;;;;;;9.34;73.54;90421.28;4877124;29;20395;-79
2021/11/26 13:17:54;;;;;;;10.20;4.90;;;;;;;8.92;74.29;90419.66;4874079;29;20052;-76
2021/11/26 13:20:32;;;;;;;10.20;4.15;;;;;;;8.17;75.83;90419.03;4875882;29;20388;-74
2021/11/26 13:23:13;;;;;;;13.02;5.10;;;;;;;7.54;79.98;90417.25;4863045;29;20054;-75
2021/11/26 13:25:44;;;;;;;9.95;5.07;;;;;;;8.23;78.07;90418.53;4881433;29;20044;-77
2021/11/26 13:28:37;;;;;;;5.53;3.35;;;;;;;8.14;77.82;90417.84;4865439;29;20057;-77
2021/11/26 13:31:08;;;;;;;10.07;4.97;;;;;;;8.51;76.89;90416.13;4864752;29;20492;-77
2021/11/26 13:33:55;;;;;;;11.05;5.85;;;;;;;8.70;75.03;90420.09;4834501;29;20414;-77
2021/11/26 13:36:24;;;;;;;11.75;5.82;;;;;;;8.60;75.63;90415.28;4850102;29;20049;-78
2021/11/26 13:38:52;;;;;;;12.15;4.50;;;;;;;8.46;76.82;90410.34;4849401;29;20034;-77
2021/11/26 13:41:32;;;;;;;10.55;4.63;;;;;;;8.19;76.15;90406.47;4880564;29;20089;-77
2021/11/26 13:44:07;;;;;;;9.20;4.70;;;;;;;7.83;78.38;90407.84;4880787;29;20044;-77
2021/11/26 13:46:35;;;;;;;8.73;4.13;;;;;;;7.21;80.15;90406.78;4880640;29;20059;-77
2021/11/26 13:49:07;;;;;;;8.43;4.68;;;;;;;7.16;79.59;90404.34;4864161;29;20052;-77
2021/11/26 13:51:36;;;;;;;7.97;4.25;;;;;;;6.84;80.95;90399.44;4880512;29;20037;-77
2021/11/26 13:54:06;;;;;;;7.78;4.07;;;;;;;6.93;79.78;90396.03;4863872;29;20041;-77
2021/11/26 13:56:36;;;;;;;4.95;2.80;;;;;;;6.53;80.83;90393.78;4871703;29;20046;-77
2021/11/26 13:59:08;;;;;;;7.80;3.38;;;;;;;6.60;81.18;90388.88;4861914;29;20135;-77
2021/11/26 14:01:36;;;;;;;8.13;3.90;;;;;;;6.57;81.77;90392.06;4874533;29;20044;-76
2021/11/26 14:04:08;;;;;;;5.32;2.92;;;;;;;6.62;81.55;90386.69;4863686;29;20033;-76
2021/11/26 14:06:34;;;;;;;8.18;3.50;;;;;;;6.43;82.10;90389.69;4848398;29;20433;-77
2021/11/26 14:09:09;;;;;;;7.20;3.33;;;;;;;6.32;82.68;90385.91;4880363;29;20033;-77
2021/11/26 14:11:46;;;;;;;6.05;3.10;;;;;;;6.52;82.47;90381.84;4872618;29;20554;-76
2021/11/26 14:14:15;;;;;;;5.72;3.10;;;;;;;6.40;83.02;90385.13;4898988;29;20123;-77
2021/11/26 14:16:51;;;;;;;8.45;3.58;;;;;;;6.42;82.54;90378.53;4881520;29;20065;-77
2021/11/26 14:19:30;;;;;;;11.82;3.25;;;;;;;6.58;81.73;90375.41;4847334;29;20132;-77
2021/11/26 14:21:57;;;;;;;6.15;3.00;;;;;;;6.44;82.38;90379.00;4868112;29;20033;-77
2021/11/26 14:24:35;;;;;;;9.10;3.33;;;;;;;7.00;79.64;90378.09;4875034;29;20078;-77
2021/11/26 14:27:00;;;;;;;6.55;3.40;;;;;;;7.63;77.42;90378.13;4878329;29;20058;-77
2021/11/26 14:29:27;;;;;;;6.72;3.17;;;;;;;7.55;77.04;90365.97;4878786;29;20030;-77
2021/11/26 14:31:54;;;;;;;13.25;3.55;;;;;;;7.73;76.39;90369.94;4869500;29;20410;-77
2021/11/26 14:34:20;;;;;;;6.32;3.25;;;;;;;7.67;76.31;90366.75;4880029;29;20124;-77
2021/11/26 14:36:48;;;;;;;6.75;3.70;;;;;;;7.86;76.45;90365.56;4879612;29;20173;-77
2021/11/26 14:39:14;;;;;;;9.13;3.67;;;;;;;7.80;76.12;90364.22;4862871;29;20036;-77
2021/11/26 14:41:42;;;;;;;6.00;3.30;;;;;;;7.94;73.58;90364.69;4859668;29;20445;-77
2021/11/26 14:44:13;;;;;;;5.65;2.72;;;;;;;7.45;74.37;90359.28;4871231;29;20082;-76
2021/11/26 14:46:57;;;;;;;5.00;3.10;;;;;;;7.33;75.41;90364.44;4863443;29;20515;-79
2021/11/26 14:49:56;;;;;;;5.82;3.15;;;;;;;7.14;77.14;90357.03;4862352;29;20181;-77
2021/11/26 14:52:33;;;;;;;8.18;3.08;;;;;;;6.95;77.26;90357.47;4846964;29;20077;-77
2021/11/26 14:54:59;;;;;;;5.43;3.22;;;;;;;6.88;78.56;90356.13;4863381;29;20040;-76
2021/11/26 14:57:26;;;;;;;6.85;3.42;;;;;;;6.80;78.26;90356.97;4880102;29;20033;-77
2021/11/26 14:59:55;;;;;;;7.07;3.50;;;;;;;6.74;79.57;90349.66;4880269;29;20048;-76
2021/11/26 15:02:23;;;;;;;6.97;3.42;;;;;;;6.70;80.03;90346.16;4863232;29;20028;-77
2021/11/26 15:04:49;;;;;;;8.00;3.53;;;;;;;6.70;80.20;90356.56;4879720;29;20132;-78
2021/11/26 15:07:25;;;;;;;7.05;3.78;;;;;;;6.74;79.38;90353.00;4871985;29;20584;-77
2021/11/26 15:09:52;;;;;;;8.05;3.80;;;;;;;6.65;79.42;90354.88;4871033;29;20079;-77
2021/11/26 15:12:18;;;;;;;6.60;3.35;;;;;;;6.43;80.56;90348.09;4863494;29;20032;-77
2021/11/26 15:14:45;;;;;;;8.27;3.45;;;;;;;6.31;81.20;90350.59;4855069;29;20049;-77
2021/11/26 15:17:11;;;;;;;7.30;3.92;;;;;;;6.15;82.74;90355.56;4846543;29;20076;-77
2021/11/26 15:19:37;;;;;;;7.15;3.95;;;;;;;6.01;83.42;90351.31;4879117;29;20076;-77
2021/11/26 15:22:04;;;;;;;8.02;4.07;;;;;;;5.87;84.39;90344.72;4861964;29;20076;-77
2021/11/26 15:24:30;;;;;;;8.73;4.13;;;;;;;5.78;84.39;90339.56;4862007;29;20051;-77
2021/11/26 15:26:57;;;;;;;7.95;4.35;;;;;;;5.68;85.42;90352.88;4878902;29;20049;-77
2021/11/26 15:29:23;;;;;;;8.75;4.18;;;;;;;5.66;85.22;90342.03;4861028;29;20045;-77
2021/11/26 15:31:49;;;;;;;7.50;4.10;;;;;;;5.63;85.67;90351.94;4860990;29;20495;-77
2021/11/26 15:34:14;;;;;;;10.38;5.00;;;;;;;5.64;85.56;90345.69;4846782;29;20092;-77
2021/11/26 15:36:41;;;;;;;13.18;4.55;;;;;;;5.58;84.49;90352.13;4843932;29;20100;-77
2021/11/26 15:39:09;;;;;;;8.77;4.28;;;;;;;5.53;84.63;90349.66;4846907;29;20029;-77
2021/11/26 15:41:40;;;;;;;10.32;4.60;;;;;;;5.54;85.13;90346.00;4861768;29;20052;-77
2021/11/26 15:44:07;;;;;;;8.95;4.40;;;;;;;5.56;85.24;90341.28;4844712;29;20519;-77
2021/11/26 15:46:33;;;;;;;11.75;4.63;;;;;;;5.57;85.70;90347.22;4835356;29;20041;-76
2021/11/26 15:49:00;;;;;;;11.25;4.63;;;;;;;5.58;86.02;90344.34;4861605;29;20056;-76
2021/11/26 15:51:26;;;;;;;9.43;4.40;;;;;;;5.48;86.16;90342.03;4867645;29;20021;-77
2021/11/26 15:53:52;;;;;;;6.97;3.70;;;;;;;5.49;86.46;90342.78;4859675;29;20499;-76
2021/11/26 15:56:17;;;;;;;7.80;4.18;;;;;;;5.44;86.66;90341.13;4865025;29;20150;-77
2021/11/26 15:58:45;;;;;;;8.40;4.05;;;;;;;5.44;86.78;90338.53;4867688;29;20124;-77
2021/11/26 16:01:14;;;;;;;9.23;4.18;;;;;;;5.45;86.66;90342.66;4861175;29;20503;-77
2021/11/26 16:03:40;;;;;;;11.40;5.22;;;;;;;5.46;88.30;90335.63;4872991;29;20052;-76
2021/11/26 16:06:06;;;;;;;10.73;5.38;;;;;;;5.42;87.36;90333.63;4864539;29;20025;-75
2021/11/26 16:08:33;;;;;;;8.48;4.10;;;;;;;5.39;87.40;90331.66;4862770;29;20040;-76
2021/11/26 16:10:59;;;;;;;9.65;4.13;;;;;;;5.39;87.67;90329.06;4891424;29;20033;-76
2021/11/26 16:13:32;;;;;;;7.80;4.20;;;;;;;5.37;88.33;90333.81;4886509;29;20438;-76
2021/11/26 16:15:59;;;;;;;10.13;4.22;;;;;;;5.36;88.51;90334.88;4846660;29;20033;-76
2021/11/26 16:18:26;;;;;;;13.15;5.25;;;;;;;5.34;88.21;90331.06;4854658;29;20029;-76
2021/11/26 16:20:52;;;;;;;10.45;5.93;;;;;;;5.32;88.46;90328.00;4868980;29;20053;-76
2021/11/26 16:23:17;;;;;;;13.27;6.97;;;;;;;5.31;88.74;90329.81;4870870;29;20063;-77
2021/11/26 16:25:43;;;;;;;13.70;5.88;;;;;;;5.29;88.58;90332.00;4858201;29;20090;-77
2021/11/26 16:28:09;;;;;;;9.13;4.90;;;;;;;5.27;88.81;90330.75;4867417;29;20033;-77
2021/11/26 16:30:38;;;;;;;9.35;4.53;;;;;;;5.22;89.03;90329.84;4875169;29;20128;-78
2021/11/26 16:35:42;;;;;;;7.85;4.30;;;;;;;5.24;89.18;90329.53;4875270;29;20132;-78
2021/11/26 16:38:08;;;;;;;7.82;4.40;;;;;;;5.24;89.00;90331.38;4846104;29;20118;-79
2021/11/26 16:40:36;;;;;;;8.45;4.07;;;;;;;5.22;89.22;90340.22;4877869;29;20461;-77
2021/11/26 16:43:02;;;;;;;9.57;5.07;;;;;;;5.23;89.55;90335.78;4879733;29;20072;-79
2021/11/26 16:45:32;;;;;;;7.80;4.05;;;;;;;5.22;89.40;90336.84;4877844;29;20137;-78
2021/11/26 16:48:00;;;;;;;7.30;4.22;;;;;;;5.18;89.32;90334.13;4862183;29;20037;-78
2021/11/26 16:50:27;;;;;;;12.35;5.22;;;;;;;5.16;89.48;90340.69;4860870;29;20101;-78
2021/11/26 16:52:55;;;;;;;7.13;4.32;;;;;;;5.13;89.74;90336.84;4851127;29;20494;-78